sensor_id;sensor_type;location;lat;lon;timestamp;pressure;altitude;pressure_sealevel;temperature;humidity
76794;BME280;65745;50.278;18.192;2023-05-29T00:02:28;99911.17;;;10.29;69.22
76794;BME280;65745;50.278;18.192;2023-05-29T00:05:00;99908.29;;;10.31;66.91
76794;BME280;65745;50.278;18.192;2023-05-29T00:07:34;99909.89;;;10.34;66.23
76794;BME280;65745;50.278;18.192;2023-05-29T00:10:08;99905.64;;;10.35;66.17
76794;BME280;65745;50.278;18.192;2023-05-29T00:12:41;99911.67;;;10.37;65.88
76794;BME280;65745;50.278;18.192;2023-05-29T00:15:13;99913.77;;;10.38;65.78
76794;BME280;65745;50.278;18.192;2023-05-29T00:17:45;99913.81;;;10.32;66.88
76794;BME280;65745;50.278;18.192;2023-05-29T00:20:17;99911.15;;;10.28;67.19
76794;BME280;65745;50.278;18.192;2023-05-29T00:22:50;99908.42;;;10.14;69.80
76794;BME280;65745;50.278;18.192;2023-05-29T00:25:22;99904.98;;;10.07;69.70
76794;BME280;65745;50.278;18.192;2023-05-29T00:27:54;99901.62;;;9.95;70.37
76794;BME280;65745;50.278;18.192;2023-05-29T00:30:26;99901.40;;;9.93;68.82
76794;BME280;65745;50.278;18.192;2023-05-29T00:32:58;99898.18;;;9.88;70.29
76794;BME280;65745;50.278;18.192;2023-05-29T00:35:32;99897.48;;;9.79;69.58
76794;BME280;65745;50.278;18.192;2023-05-29T00:38:04;99898.27;;;9.76;70.06
76794;BME280;65745;50.278;18.192;2023-05-29T00:40:36;99896.54;;;9.76;68.01
76794;BME280;65745;50.278;18.192;2023-05-29T00:43:08;99899.50;;;9.77;70.24
76794;BME280;65745;50.278;18.192;2023-05-29T00:45:40;99893.66;;;9.70;70.96
76794;BME280;65745;50.278;18.192;2023-05-29T00:48:12;99893.36;;;9.71;68.78
76794;BME280;65745;50.278;18.192;2023-05-29T00:50:45;99895.71;;;9.77;68.43
76794;BME280;65745;50.278;18.192;2023-05-29T00:53:17;99894.08;;;9.81;67.62
76794;BME280;65745;50.278;18.192;2023-05-29T00:55:49;99892.99;;;9.79;68.22
76794;BME280;65745;50.278;18.192;2023-05-29T00:58:22;99894.86;;;9.77;68.95
76794;BME280;65745;50.278;18.192;2023-05-29T01:00:55;99889.40;;;9.79;69.34
76794;BME280;65745;50.278;18.192;2023-05-29T01:03:27;99889.73;;;9.79;68.27
76794;BME280;65745;50.278;18.192;2023-05-29T01:06:00;99893.48;;;9.77;68.62
76794;BME280;65745;50.278;18.192;2023-05-29T01:08:34;99892.51;;;9.80;68.38
76794;BME280;65745;50.278;18.192;2023-05-29T01:11:11;99893.85;;;9.86;68.71
76794;BME280;65745;50.278;18.192;2023-05-29T01:13:47;99893.60;;;9.83;68.25
76794;BME280;65745;50.278;18.192;2023-05-29T01:16:29;99893.74;;;9.81;68.36
76794;BME280;65745;50.278;18.192;2023-05-29T01:19:14;99892.98;;;9.79;68.38
76794;BME280;65745;50.278;18.192;2023-05-29T01:21:59;99895.23;;;9.78;68.43
76794;BME280;65745;50.278;18.192;2023-05-29T01:24:41;99895.83;;;9.74;67.95
76794;BME280;65745;50.278;18.192;2023-05-29T01:27:19;99890.80;;;9.72;68.47
76794;BME280;65745;50.278;18.192;2023-05-29T01:29:53;99889.99;;;9.68;67.55
76794;BME280;65745;50.278;18.192;2023-05-29T01:32:27;99891.03;;;9.61;68.21
76794;BME280;65745;50.278;18.192;2023-05-29T01:34:59;99892.27;;;9.55;68.52
76794;BME280;65745;50.278;18.192;2023-05-29T01:37:31;99892.23;;;9.53;68.43
76794;BME280;65745;50.278;18.192;2023-05-29T01:40:04;99894.25;;;9.52;67.98
76794;BME280;65745;50.278;18.192;2023-05-29T01:42:36;99895.04;;;9.49;69.04
76794;BME280;65745;50.278;18.192;2023-05-29T01:45:09;99896.55;;;9.47;68.97
76794;BME280;65745;50.278;18.192;2023-05-29T01:47:42;99899.12;;;9.46;68.27
76794;BME280;65745;50.278;18.192;2023-05-29T01:50:17;99896.20;;;9.46;68.11
76794;BME280;65745;50.278;18.192;2023-05-29T01:52:50;99892.95;;;9.40;68.66
76794;BME280;65745;50.278;18.192;2023-05-29T01:55:22;99894.66;;;9.33;69.12
76794;BME280;65745;50.278;18.192;2023-05-29T01:57:55;99898.47;;;9.20;70.35
76794;BME280;65745;50.278;18.192;2023-05-29T02:00:27;99899.20;;;9.16;70.08
76794;BME280;65745;50.278;18.192;2023-05-29T02:03:01;99898.91;;;9.11;69.61
76794;BME280;65745;50.278;18.192;2023-05-29T02:05:34;99897.45;;;9.14;69.12
76794;BME280;65745;50.278;18.192;2023-05-29T02:08:06;99898.41;;;9.05;71.47
76794;BME280;65745;50.278;18.192;2023-05-29T02:10:38;99894.67;;;9.00;71.22
76794;BME280;65745;50.278;18.192;2023-05-29T02:13:10;99895.29;;;9.04;69.56
76794;BME280;65745;50.278;18.192;2023-05-29T02:15:43;99895.38;;;9.01;69.82
76794;BME280;65745;50.278;18.192;2023-05-29T02:18:16;99891.21;;;8.99;69.66
76794;BME280;65745;50.278;18.192;2023-05-29T02:20:49;99889.89;;;9.01;69.43
76794;BME280;65745;50.278;18.192;2023-05-29T02:23:24;99883.15;;;9.06;69.27
76794;BME280;65745;50.278;18.192;2023-05-29T02:25:56;99884.30;;;9.10;69.13
76794;BME280;65745;50.278;18.192;2023-05-29T02:28:28;99885.33;;;9.11;68.79
76794;BME280;65745;50.278;18.192;2023-05-29T02:31:01;99877.85;;;9.01;71.21
76794;BME280;65745;50.278;18.192;2023-05-29T02:33:33;99879.13;;;8.90;70.95
76794;BME280;65745;50.278;18.192;2023-05-29T02:36:06;99878.73;;;8.88;70.40
76794;BME280;65745;50.278;18.192;2023-05-29T02:38:40;99873.86;;;8.92;69.61
76794;BME280;65745;50.278;18.192;2023-05-29T02:41:13;99873.77;;;8.95;69.46
76794;BME280;65745;50.278;18.192;2023-05-29T02:43:45;99874.09;;;8.88;69.55
76794;BME280;65745;50.278;18.192;2023-05-29T02:46:17;99869.73;;;8.79;71.63
76794;BME280;65745;50.278;18.192;2023-05-29T02:48:49;99877.24;;;8.65;73.05
76794;BME280;65745;50.278;18.192;2023-05-29T02:51:21;99874.79;;;8.63;71.63
76794;BME280;65745;50.278;18.192;2023-05-29T02:53:53;99876.97;;;8.67;70.83
76794;BME280;65745;50.278;18.192;2023-05-29T02:56:25;99874.84;;;8.70;70.61
76794;BME280;65745;50.278;18.192;2023-05-29T02:58:57;99875.63;;;8.81;70.40
76794;BME280;65745;50.278;18.192;2023-05-29T03:01:29;99875.73;;;8.92;70.30
76794;BME280;65745;50.278;18.192;2023-05-29T03:04:04;99869.87;;;8.98;70.60
76794;BME280;65745;50.278;18.192;2023-05-29T03:06:36;99870.84;;;9.02;70.41
76794;BME280;65745;50.278;18.192;2023-05-29T03:09:10;99870.20;;;9.04;70.87
76794;BME280;65745;50.278;18.192;2023-05-29T03:11:43;99869.38;;;9.05;70.30
76794;BME280;65745;50.278;18.192;2023-05-29T03:14:15;99872.21;;;9.02;70.32
76794;BME280;65745;50.278;18.192;2023-05-29T03:16:48;99870.65;;;9.01;70.26
76794;BME280;65745;50.278;18.192;2023-05-29T03:19:21;99867.33;;;9.05;70.16
76794;BME280;65745;50.278;18.192;2023-05-29T03:21:53;99868.98;;;9.03;70.32
76794;BME280;65745;50.278;18.192;2023-05-29T03:24:26;99871.33;;;9.01;70.14
76794;BME280;65745;50.278;18.192;2023-05-29T03:26:58;99870.09;;;9.06;69.56
76794;BME280;65745;50.278;18.192;2023-05-29T03:29:30;99870.23;;;9.11;69.75
76794;BME280;65745;50.278;18.192;2023-05-29T03:32:04;99869.75;;;9.14;69.97
76794;BME280;65745;50.278;18.192;2023-05-29T03:34:36;99872.59;;;9.16;70.21
76794;BME280;65745;50.278;18.192;2023-05-29T03:37:09;99872.20;;;9.22;70.21
76794;BME280;65745;50.278;18.192;2023-05-29T03:39:41;99869.71;;;9.32;70.39
76794;BME280;65745;50.278;18.192;2023-05-29T03:42:14;99874.68;;;9.38;69.74
76794;BME280;65745;50.278;18.192;2023-05-29T03:44:46;99875.73;;;9.47;69.42
76794;BME280;65745;50.278;18.192;2023-05-29T03:47:19;99880.02;;;9.46;69.77
76794;BME280;65745;50.278;18.192;2023-05-29T03:49:51;99881.64;;;9.42;69.67
76794;BME280;65745;50.278;18.192;2023-05-29T03:52:23;99878.83;;;9.39;70.02
76794;BME280;65745;50.278;18.192;2023-05-29T03:54:57;99882.48;;;9.34;71.09
76794;BME280;65745;50.278;18.192;2023-05-29T03:57:29;99883.98;;;9.32;70.32
76794;BME280;65745;50.278;18.192;2023-05-29T04:00:01;99881.92;;;9.32;70.33
76794;BME280;65745;50.278;18.192;2023-05-29T04:02:42;99884.81;;;9.38;70.42
76794;BME280;65745;50.278;18.192;2023-05-29T04:05:15;99881.98;;;9.49;70.91
76794;BME280;65745;50.278;18.192;2023-05-29T04:07:48;99885.11;;;9.58;70.41
76794;BME280;65745;50.278;18.192;2023-05-29T04:10:22;99885.36;;;9.68;70.51
76794;BME280;65745;50.278;18.192;2023-05-29T04:12:56;99888.21;;;9.81;70.27
76794;BME280;65745;50.278;18.192;2023-05-29T04:15:28;99884.94;;;9.88;70.98
76794;BME280;65745;50.278;18.192;2023-05-29T04:18:01;99891.39;;;9.91;70.68
76794;BME280;65745;50.278;18.192;2023-05-29T04:20:33;99894.81;;;9.91;71.46
76794;BME280;65745;50.278;18.192;2023-05-29T04:23:06;99899.10;;;9.83;73.00
76794;BME280;65745;50.278;18.192;2023-05-29T04:25:38;99900.96;;;9.81;73.43
76794;BME280;65745;50.278;18.192;2023-05-29T04:28:11;99904.98;;;9.92;71.73
76794;BME280;65745;50.278;18.192;2023-05-29T04:30:44;99909.58;;;9.97;73.71
76794;BME280;65745;50.278;18.192;2023-05-29T04:33:16;99909.50;;;10.01;75.03
76794;BME280;65745;50.278;18.192;2023-05-29T04:35:51;99913.21;;;10.05;75.83
76794;BME280;65745;50.278;18.192;2023-05-29T04:38:23;99916.91;;;10.16;74.53
76794;BME280;65745;50.278;18.192;2023-05-29T04:40:57;99916.78;;;10.34;73.59
76794;BME280;65745;50.278;18.192;2023-05-29T04:43:31;99921.92;;;10.49;73.03
76794;BME280;65745;50.278;18.192;2023-05-29T04:46:09;99917.77;;;10.73;72.58
76794;BME280;65745;50.278;18.192;2023-05-29T04:48:44;99920.92;;;10.94;72.30
76794;BME280;65745;50.278;18.192;2023-05-29T04:51:17;99916.06;;;11.12;72.08
76794;BME280;65745;50.278;18.192;2023-05-29T04:53:52;99917.75;;;11.29;71.65
76794;BME280;65745;50.278;18.192;2023-05-29T04:56:24;99919.08;;;11.46;70.79
76794;BME280;65745;50.278;18.192;2023-05-29T04:58:57;99924.33;;;11.62;70.46
76794;BME280;65745;50.278;18.192;2023-05-29T05:01:30;99922.52;;;11.76;70.29
76794;BME280;65745;50.278;18.192;2023-05-29T05:04:05;99924.08;;;11.87;69.82
76794;BME280;65745;50.278;18.192;2023-05-29T05:06:37;99925.62;;;11.98;69.93
76794;BME280;65745;50.278;18.192;2023-05-29T05:09:09;99926.16;;;12.12;69.83
76794;BME280;65745;50.278;18.192;2023-05-29T05:11:42;99925.98;;;12.25;69.31
76794;BME280;65745;50.278;18.192;2023-05-29T05:14:15;99927.20;;;12.38;69.55
76794;BME280;65745;50.278;18.192;2023-05-29T05:16:47;99923.39;;;12.51;69.69
76794;BME280;65745;50.278;18.192;2023-05-29T05:19:19;99924.24;;;12.64;69.21
76794;BME280;65745;50.278;18.192;2023-05-29T05:21:52;99926.46;;;12.77;69.39
76794;BME280;65745;50.278;18.192;2023-05-29T05:24:25;99927.55;;;12.95;69.11
76794;BME280;65745;50.278;18.192;2023-05-29T05:26:57;99928.28;;;13.14;68.89
76794;BME280;65745;50.278;18.192;2023-05-29T05:29:30;99931.01;;;13.27;68.47
76794;BME280;65745;50.278;18.192;2023-05-29T05:32:02;99932.52;;;13.41;68.13
76794;BME280;65745;50.278;18.192;2023-05-29T05:34:35;99931.09;;;13.56;67.92
76794;BME280;65745;50.278;18.192;2023-05-29T05:37:07;99928.77;;;13.70;67.57
76794;BME280;65745;50.278;18.192;2023-05-29T05:39:40;99929.92;;;13.85;67.45
76794;BME280;65745;50.278;18.192;2023-05-29T05:42:12;99931.95;;;14.02;67.29
76794;BME280;65745;50.278;18.192;2023-05-29T05:44:52;99938.81;;;14.18;66.62
76794;BME280;65745;50.278;18.192;2023-05-29T05:47:25;99936.46;;;14.32;65.88
76794;BME280;65745;50.278;18.192;2023-05-29T05:49:58;99936.91;;;14.46;65.64
76794;BME280;65745;50.278;18.192;2023-05-29T05:52:30;99936.10;;;14.59;65.14
76794;BME280;65745;50.278;18.192;2023-05-29T05:55:05;99939.97;;;14.70;64.77
76794;BME280;65745;50.278;18.192;2023-05-29T05:57:38;99937.75;;;14.79;64.39
76794;BME280;65745;50.278;18.192;2023-05-29T06:00:13;99937.77;;;14.91;64.06
76794;BME280;65745;50.278;18.192;2023-05-29T06:02:48;99938.33;;;15.05;63.83
76794;BME280;65745;50.278;18.192;2023-05-29T06:05:32;99936.11;;;15.19;63.41
76794;BME280;65745;50.278;18.192;2023-05-29T06:08:07;99938.22;;;15.30;63.31
76794;BME280;65745;50.278;18.192;2023-05-29T06:10:40;99935.80;;;15.43;62.45
76794;BME280;65745;50.278;18.192;2023-05-29T06:13:13;99935.31;;;15.56;62.45
76794;BME280;65745;50.278;18.192;2023-05-29T06:15:59;99933.22;;;15.72;62.42
76794;BME280;65745;50.278;18.192;2023-05-29T06:18:32;99935.13;;;15.85;61.68
76794;BME280;65745;50.278;18.192;2023-05-29T06:21:05;99938.41;;;15.99;61.50
76794;BME280;65745;50.278;18.192;2023-05-29T06:23:47;99934.91;;;16.14;61.14
76794;BME280;65745;50.278;18.192;2023-05-29T06:26:19;99935.05;;;16.28;60.76
76794;BME280;65745;50.278;18.192;2023-05-29T06:28:53;99935.88;;;16.45;60.60
76794;BME280;65745;50.278;18.192;2023-05-29T06:31:25;99929.75;;;16.59;60.12
76794;BME280;65745;50.278;18.192;2023-05-29T06:33:57;99937.35;;;16.75;59.53
76794;BME280;65745;50.278;18.192;2023-05-29T06:36:31;99940.58;;;16.91;59.48
76794;BME280;65745;50.278;18.192;2023-05-29T06:39:06;99937.52;;;17.08;58.88
76794;BME280;65745;50.278;18.192;2023-05-29T06:41:39;99937.07;;;17.24;57.55
76794;BME280;65745;50.278;18.192;2023-05-29T06:44:13;99942.71;;;17.38;57.65
76794;BME280;65745;50.278;18.192;2023-05-29T06:46:46;99944.91;;;17.50;57.41
76794;BME280;65745;50.278;18.192;2023-05-29T06:49:19;99943.41;;;17.66;56.83
76794;BME280;65745;50.278;18.192;2023-05-29T06:51:51;99945.02;;;17.83;56.99
76794;BME280;65745;50.278;18.192;2023-05-29T06:54:28;99944.87;;;18.00;56.25
76794;BME280;65745;50.278;18.192;2023-05-29T06:57:01;99946.08;;;18.18;55.41
76794;BME280;65745;50.278;18.192;2023-05-29T06:59:41;99949.54;;;18.36;55.30
76794;BME280;65745;50.278;18.192;2023-05-29T07:02:15;99950.98;;;18.48;54.22
76794;BME280;65745;50.278;18.192;2023-05-29T07:04:49;99956.27;;;18.60;55.55
76794;BME280;65745;50.278;18.192;2023-05-29T07:07:22;99961.65;;;18.79;55.22
76794;BME280;65745;50.278;18.192;2023-05-29T07:09:55;99958.27;;;18.95;54.64
76794;BME280;65745;50.278;18.192;2023-05-29T07:12:28;99957.20;;;19.10;54.68
76794;BME280;65745;50.278;18.192;2023-05-29T07:15:00;99956.10;;;19.27;54.50
76794;BME280;65745;50.278;18.192;2023-05-29T07:17:32;99959.53;;;19.42;53.30
76794;BME280;65745;50.278;18.192;2023-05-29T07:20:13;99960.53;;;19.59;53.02
76794;BME280;65745;50.278;18.192;2023-05-29T07:22:46;99962.99;;;19.69;50.92
76794;BME280;65745;50.278;18.192;2023-05-29T07:25:19;99961.94;;;19.68;51.01
76794;BME280;65745;50.278;18.192;2023-05-29T07:27:52;99955.17;;;19.65;51.54
76794;BME280;65745;50.278;18.192;2023-05-29T07:30:24;99951.58;;;19.73;51.61
76794;BME280;65745;50.278;18.192;2023-05-29T07:32:58;99950.80;;;19.87;51.51
76794;BME280;65745;50.278;18.192;2023-05-29T07:35:31;99952.26;;;20.04;51.44
76794;BME280;65745;50.278;18.192;2023-05-29T07:38:04;99949.13;;;20.22;50.06
76794;BME280;65745;50.278;18.192;2023-05-29T07:40:37;99953.20;;;20.40;50.09
76794;BME280;65745;50.278;18.192;2023-05-29T07:43:24;99947.91;;;20.59;50.21
76794;BME280;65745;50.278;18.192;2023-05-29T07:45:59;99952.27;;;20.77;50.29
76794;BME280;65745;50.278;18.192;2023-05-29T07:48:32;99951.27;;;20.91;49.35
76794;BME280;65745;50.278;18.192;2023-05-29T07:51:05;99952.64;;;21.01;48.75
76794;BME280;65745;50.278;18.192;2023-05-29T07:53:45;99953.27;;;21.05;47.31
76794;BME280;65745;50.278;18.192;2023-05-29T07:56:18;99956.80;;;21.19;48.30
76794;BME280;65745;50.278;18.192;2023-05-29T07:58:51;99954.90;;;21.34;47.36
76794;BME280;65745;50.278;18.192;2023-05-29T08:01:24;99954.84;;;21.51;47.57
76794;BME280;65745;50.278;18.192;2023-05-29T08:03:57;99958.61;;;21.70;47.12
76794;BME280;65745;50.278;18.192;2023-05-29T08:06:33;99959.89;;;21.89;47.17
76794;BME280;65745;50.278;18.192;2023-05-29T08:09:06;99961.05;;;22.12;46.21
76794;BME280;65745;50.278;18.192;2023-05-29T08:11:38;99961.44;;;22.30;45.50
76794;BME280;65745;50.278;18.192;2023-05-29T08:14:10;99959.85;;;22.44;45.42
76794;BME280;65745;50.278;18.192;2023-05-29T08:16:43;99956.35;;;22.62;45.51
76794;BME280;65745;50.278;18.192;2023-05-29T08:19:15;99955.67;;;22.87;45.12
76794;BME280;65745;50.278;18.192;2023-05-29T08:21:47;99951.29;;;23.04;44.30
76794;BME280;65745;50.278;18.192;2023-05-29T08:24:20;99951.34;;;22.97;44.40
76794;BME280;65745;50.278;18.192;2023-05-29T08:26:52;99949.79;;;23.02;42.81
76794;BME280;65745;50.278;18.192;2023-05-29T08:29:24;99952.25;;;23.18;42.89
76794;BME280;65745;50.278;18.192;2023-05-29T08:31:57;99955.25;;;23.35;42.69
76794;BME280;65745;50.278;18.192;2023-05-29T08:34:30;99955.38;;;23.60;42.11
76794;BME280;65745;50.278;18.192;2023-05-29T08:37:03;99956.52;;;23.88;42.75
76794;BME280;65745;50.278;18.192;2023-05-29T08:39:36;99955.52;;;24.07;41.49
76794;BME280;65745;50.278;18.192;2023-05-29T08:42:10;99959.58;;;24.24;40.54
76794;BME280;65745;50.278;18.192;2023-05-29T08:44:48;99956.16;;;24.45;40.08
76794;BME280;65745;50.278;18.192;2023-05-29T08:47:22;99950.86;;;24.60;40.27
76794;BME280;65745;50.278;18.192;2023-05-29T08:50:00;99953.20;;;24.73;40.03
76794;BME280;65745;50.278;18.192;2023-05-29T08:52:34;99949.78;;;24.84;39.36
76794;BME280;65745;50.278;18.192;2023-05-29T08:55:08;99951.77;;;25.03;40.23
76794;BME280;65745;50.278;18.192;2023-05-29T08:57:41;99948.19;;;25.26;39.41
76794;BME280;65745;50.278;18.192;2023-05-29T09:00:15;99945.39;;;25.30;38.67
76794;BME280;65745;50.278;18.192;2023-05-29T09:02:49;99949.05;;;25.40;38.34
76794;BME280;65745;50.278;18.192;2023-05-29T09:05:23;99953.41;;;25.59;36.91
76794;BME280;65745;50.278;18.192;2023-05-29T09:07:59;99948.77;;;25.77;35.85
76794;BME280;65745;50.278;18.192;2023-05-29T09:10:52;99948.31;;;25.85;34.90
76794;BME280;65745;50.278;18.192;2023-05-29T09:13:31;99945.98;;;26.02;35.86
76794;BME280;65745;50.278;18.192;2023-05-29T09:16:03;99948.73;;;26.20;35.38
76794;BME280;65745;50.278;18.192;2023-05-29T09:18:37;99947.89;;;26.40;33.84
76794;BME280;65745;50.278;18.192;2023-05-29T09:21:10;99948.68;;;26.49;33.51
76794;BME280;65745;50.278;18.192;2023-05-29T09:24:04;99944.69;;;26.52;33.44
76794;BME280;65745;50.278;18.192;2023-05-29T09:26:37;99943.58;;;26.53;33.16
76794;BME280;65745;50.278;18.192;2023-05-29T09:29:12;99945.16;;;26.49;32.53
76794;BME280;65745;50.278;18.192;2023-05-29T09:31:48;99945.33;;;26.53;32.97
76794;BME280;65745;50.278;18.192;2023-05-29T09:34:24;99942.35;;;26.64;32.30
76794;BME280;65745;50.278;18.192;2023-05-29T09:37:02;99943.89;;;26.70;31.56
76794;BME280;65745;50.278;18.192;2023-05-29T09:39:49;99938.11;;;26.92;32.05
76794;BME280;65745;50.278;18.192;2023-05-29T09:42:22;99941.42;;;26.97;31.22
76794;BME280;65745;50.278;18.192;2023-05-29T09:44:59;99938.44;;;27.00;31.39
76794;BME280;65745;50.278;18.192;2023-05-29T09:47:36;99942.39;;;27.10;30.62
76794;BME280;65745;50.278;18.192;2023-05-29T09:50:19;99938.70;;;27.24;30.79
76794;BME280;65745;50.278;18.192;2023-05-29T09:52:53;99940.27;;;27.32;31.08
76794;BME280;65745;50.278;18.192;2023-05-29T09:55:26;99940.14;;;27.35;30.95
76794;BME280;65745;50.278;18.192;2023-05-29T09:58:00;99939.53;;;27.43;30.95
76794;BME280;65745;50.278;18.192;2023-05-29T10:00:33;99933.96;;;27.67;30.42
76794;BME280;65745;50.278;18.192;2023-05-29T10:03:06;99937.42;;;27.79;29.88
76794;BME280;65745;50.278;18.192;2023-05-29T10:05:41;99937.83;;;27.99;30.48
76794;BME280;65745;50.278;18.192;2023-05-29T10:08:17;99930.52;;;28.14;29.71
76794;BME280;65745;50.278;18.192;2023-05-29T10:10:55;99933.34;;;28.18;29.26
76794;BME280;65745;50.278;18.192;2023-05-29T10:13:36;99934.45;;;28.17;29.44
76794;BME280;65745;50.278;18.192;2023-05-29T10:16:13;99930.66;;;28.36;28.55
76794;BME280;65745;50.278;18.192;2023-05-29T10:18:49;99933.41;;;28.50;28.65
76794;BME280;65745;50.278;18.192;2023-05-29T10:21:23;99932.51;;;28.57;28.93
76794;BME280;65745;50.278;18.192;2023-05-29T10:23:57;99928.89;;;28.55;29.43
76794;BME280;65745;50.278;18.192;2023-05-29T10:26:31;99932.66;;;28.87;29.56
76794;BME280;65745;50.278;18.192;2023-05-29T10:29:15;99929.45;;;29.26;28.39
76794;BME280;65745;50.278;18.192;2023-05-29T10:31:58;99933.84;;;29.64;28.38
76794;BME280;65745;50.278;18.192;2023-05-29T10:34:41;99934.67;;;29.95;28.09
76794;BME280;65745;50.278;18.192;2023-05-29T10:37:24;99933.13;;;29.97;27.26
76794;BME280;65745;50.278;18.192;2023-05-29T10:40:07;99930.02;;;29.89;26.75
76794;BME280;65745;50.278;18.192;2023-05-29T10:42:45;99928.12;;;29.89;27.60
76794;BME280;65745;50.278;18.192;2023-05-29T10:45:51;99926.34;;;30.01;26.52
76794;BME280;65745;50.278;18.192;2023-05-29T10:48:40;99924.67;;;30.37;26.33
76794;BME280;65745;50.278;18.192;2023-05-29T10:51:30;99922.04;;;30.63;26.61
76794;BME280;65745;50.278;18.192;2023-05-29T10:54:07;99918.85;;;31.05;25.84
76794;BME280;65745;50.278;18.192;2023-05-29T10:56:41;99924.38;;;31.24;26.23
76794;BME280;65745;50.278;18.192;2023-05-29T10:59:14;99923.73;;;31.53;26.03
76794;BME280;65745;50.278;18.192;2023-05-29T11:01:46;99924.07;;;31.82;26.08
76794;BME280;65745;50.278;18.192;2023-05-29T11:04:31;99922.47;;;31.85;24.30
76794;BME280;65745;50.278;18.192;2023-05-29T11:07:05;99918.28;;;31.73;24.33
76794;BME280;65745;50.278;18.192;2023-05-29T11:09:40;99913.93;;;31.85;24.70
76794;BME280;65745;50.278;18.192;2023-05-29T11:12:16;99916.45;;;31.95;24.00
76794;BME280;65745;50.278;18.192;2023-05-29T11:15:02;99916.02;;;32.04;22.94
76794;BME280;65745;50.278;18.192;2023-05-29T11:17:45;99917.18;;;31.87;23.11
76794;BME280;65745;50.278;18.192;2023-05-29T11:20:35;99908.19;;;31.64;23.85
76794;BME280;65745;50.278;18.192;2023-05-29T11:23:09;99908.93;;;31.26;23.94
76794;BME280;65745;50.278;18.192;2023-05-29T11:25:48;99901.90;;;30.89;24.11
76794;BME280;65745;50.278;18.192;2023-05-29T11:28:21;99901.66;;;31.01;25.23
76794;BME280;65745;50.278;18.192;2023-05-29T11:30:53;99901.77;;;31.43;25.22
76794;BME280;65745;50.278;18.192;2023-05-29T11:33:28;99902.34;;;31.95;24.56
76794;BME280;65745;50.278;18.192;2023-05-29T11:36:03;99901.19;;;32.45;24.95
76794;BME280;65745;50.278;18.192;2023-05-29T11:38:37;99898.50;;;32.73;23.87
76794;BME280;65745;50.278;18.192;2023-05-29T11:41:10;99897.89;;;32.89;23.08
76794;BME280;65745;50.278;18.192;2023-05-29T11:43:43;99900.06;;;32.81;23.28
76794;BME280;65745;50.278;18.192;2023-05-29T11:46:20;99898.62;;;32.66;23.32
76794;BME280;65745;50.278;18.192;2023-05-29T11:48:53;99897.68;;;32.37;22.81
76794;BME280;65745;50.278;18.192;2023-05-29T11:51:26;99895.77;;;32.31;23.20
76794;BME280;65745;50.278;18.192;2023-05-29T11:53:59;99897.49;;;32.24;23.13
76794;BME280;65745;50.278;18.192;2023-05-29T11:56:31;99899.27;;;32.14;22.94
76794;BME280;65745;50.278;18.192;2023-05-29T11:59:04;99897.73;;;31.87;22.42
76794;BME280;65745;50.278;18.192;2023-05-29T12:01:38;99899.40;;;31.73;22.71
76794;BME280;65745;50.278;18.192;2023-05-29T12:04:17;99894.40;;;31.97;23.28
76794;BME280;65745;50.278;18.192;2023-05-29T12:06:50;99888.95;;;32.22;23.26
76794;BME280;65745;50.278;18.192;2023-05-29T12:09:30;99890.98;;;32.46;22.91
76794;BME280;65745;50.278;18.192;2023-05-29T12:12:07;99886.44;;;32.57;22.10
76794;BME280;65745;50.278;18.192;2023-05-29T12:14:39;99886.73;;;32.45;22.60
76794;BME280;65745;50.278;18.192;2023-05-29T12:17:12;99882.10;;;32.48;23.50
76794;BME280;65745;50.278;18.192;2023-05-29T12:19:46;99875.80;;;32.48;23.40
76794;BME280;65745;50.278;18.192;2023-05-29T12:22:18;99875.86;;;32.73;23.27
76794;BME280;65745;50.278;18.192;2023-05-29T12:25:07;99881.73;;;33.10;22.00
76794;BME280;65745;50.278;18.192;2023-05-29T12:27:43;99877.10;;;33.31;21.26
76794;BME280;65745;50.278;18.192;2023-05-29T12:30:21;99873.71;;;33.09;20.78
76794;BME280;65745;50.278;18.192;2023-05-29T12:33:03;99868.66;;;32.76;21.32
76794;BME280;65745;50.278;18.192;2023-05-29T12:35:38;99870.51;;;32.38;21.70
76794;BME280;65745;50.278;18.192;2023-05-29T12:38:11;99867.58;;;32.79;22.02
76794;BME280;65745;50.278;18.192;2023-05-29T12:40:49;99865.58;;;33.09;22.05
76794;BME280;65745;50.278;18.192;2023-05-29T12:43:23;99859.30;;;33.36;21.86
76794;BME280;65745;50.278;18.192;2023-05-29T12:45:59;99858.69;;;33.44;21.30
76794;BME280;65745;50.278;18.192;2023-05-29T12:48:32;99854.82;;;33.26;21.22
76794;BME280;65745;50.278;18.192;2023-05-29T12:51:07;99850.35;;;33.34;21.19
76794;BME280;65745;50.278;18.192;2023-05-29T12:53:38;99848.83;;;33.44;21.26
76794;BME280;65745;50.278;18.192;2023-05-29T12:56:10;99845.46;;;33.34;21.39
76794;BME280;65745;50.278;18.192;2023-05-29T12:58:43;99848.10;;;33.40;21.47
76794;BME280;65745;50.278;18.192;2023-05-29T13:01:16;99849.02;;;33.67;21.31
76794;BME280;65745;50.278;18.192;2023-05-29T13:03:51;99847.63;;;34.11;20.27
76794;BME280;65745;50.278;18.192;2023-05-29T13:06:23;99845.02;;;34.44;20.03
76794;BME280;65745;50.278;18.192;2023-05-29T13:08:56;99844.14;;;34.66;19.69
76794;BME280;65745;50.278;18.192;2023-05-29T13:11:29;99841.17;;;34.60;19.91
76794;BME280;65745;50.278;18.192;2023-05-29T13:14:01;99837.05;;;34.69;20.44
76794;BME280;65745;50.278;18.192;2023-05-29T13:16:34;99834.48;;;34.72;19.95
76794;BME280;65745;50.278;18.192;2023-05-29T13:19:07;99832.70;;;34.52;19.62
76794;BME280;65745;50.278;18.192;2023-05-29T13:21:39;99830.77;;;34.52;20.37
76794;BME280;65745;50.278;18.192;2023-05-29T13:24:19;99824.33;;;34.39;20.73
76794;BME280;65745;50.278;18.192;2023-05-29T13:26:51;99818.59;;;34.25;20.69
76794;BME280;65745;50.278;18.192;2023-05-29T13:29:24;99823.25;;;34.36;20.19
76794;BME280;65745;50.278;18.192;2023-05-29T13:31:56;99820.00;;;34.70;20.38